Time;durP1;ratioP1;P1;durP2;ratioP2;P2;SDS_P1;SDS_P2;PMS_P1;PMS_P2;Temp;Humidity;BMP_temperature;BMP_pressure;BME280_temperature;BME280_humidity;BME280_pressure;Samples;Min_cycle;Max_cycle;Signal;HPM_P1;HPM_P2
2023/06/30 00:01:28;;;;;;;4.68;4.28;;;25.60;99.90;;;;;;5098305;28;20020;-66
2023/06/30 00:03:55;;;;;;;5.70;4.35;;;25.50;99.90;;;;;;5111960;28;20384;-66
2023/06/30 00:06:21;;;;;;;8.45;4.75;;;25.50;99.90;;;;;;5105447;28;20140;-66
2023/06/30 00:08:48;;;;;;;6.07;4.95;;;25.30;99.90;;;;;;5109662;28;20182;-67
2023/06/30 00:11:14;;;;;;;6.80;4.47;;;25.30;99.90;;;;;;5114597;28;20023;-67
2023/06/30 00:13:40;;;;;;;8.23;4.65;;;25.30;99.90;;;;;;5110371;28;20419;-67
2023/06/30 00:16:05;;;;;;;7.30;5.28;;;25.20;99.90;;;;;;5107366;28;20024;-67
2023/06/30 00:18:31;;;;;;;6.00;4.75;;;25.20;99.90;;;;;;5114883;28;20031;-67
2023/06/30 00:20:57;;;;;;;4.93;4.28;;;25.20;99.90;;;;;;5092246;28;20023;-67
2023/06/30 00:23:27;;;;;;;7.50;4.57;;;25.10;99.90;;;;;;5105218;28;20044;-67
2023/06/30 00:25:53;;;;;;;8.45;4.82;;;25.10;99.90;;;;;;5107294;28;20027;-67
2023/06/30 00:28:19;;;;;;;6.78;5.50;;;25.10;99.90;;;;;;5105648;28;20044;-67
2023/06/30 00:30:44;;;;;;;8.45;5.82;;;25.20;99.90;;;;;;5100411;28;20048;-67
2023/06/30 00:33:10;;;;;;;8.25;5.43;;;25.10;99.90;;;;;;5101375;28;20107;-67
2023/06/30 00:35:36;;;;;;;6.85;5.85;;;25.00;99.90;;;;;;5094819;28;20468;-67
2023/06/30 00:38:01;;;;;;;7.18;5.38;;;25.10;99.90;;;;;;5083921;28;20031;-66
2023/06/30 00:40:27;;;;;;;7.40;6.40;;;25.00;1.00;;;;;;5114428;28;20030;-67
2023/06/30 00:42:53;;;;;;;7.82;6.60;;;24.90;1.00;;;;;;5113310;28;20469;-67
2023/06/30 00:45:18;;;;;;;9.43;5.57;;;24.80;1.00;;;;;;5112043;28;20381;-67
2023/06/30 00:47:44;;;;;;;7.72;5.88;;;25.00;1.00;;;;;;5086409;28;20419;-67
2023/06/30 00:50:11;;;;;;;8.95;6.40;;;25.00;1.00;;;;;;5111507;28;20031;-67
2023/06/30 00:52:37;;;;;;;9.90;6.43;;;25.10;1.00;;;;;;5088149;28;20064;-67
2023/06/30 00:55:04;;;;;;;8.27;6.57;;;24.80;1.00;;;;;;5114126;28;20019;-67
2023/06/30 00:57:30;;;;;;;9.52;6.00;;;25.00;1.00;;;;;;5103003;28;20088;-67
2023/06/30 00:59:56;;;;;;;8.95;6.40;;;24.90;1.00;;;;;;5081263;28;20020;-67
2023/06/30 01:02:26;;;;;;;11.43;6.32;;;25.00;1.00;;;;;;5110779;28;20519;-67
2023/06/30 01:05:02;;;;;;;12.80;6.72;;;24.80;1.00;;;;;;5112820;28;20016;-67
2023/06/30 01:07:53;;;;;;;9.68;6.93;;;24.90;1.00;;;;;;5108082;28;20050;-66
2023/06/30 01:10:24;;;;;;;8.48;6.43;;;24.90;1.00;;;;;;5112635;28;20051;-67
2023/06/30 01:12:51;;;;;;;8.98;6.70;;;24.90;1.00;;;;;;5110944;28;20023;-67
2023/06/30 01:15:17;;;;;;;9.65;6.80;;;24.80;1.00;;;;;;5088071;28;20032;-67
2023/06/30 01:17:50;;;;;;;7.65;6.80;;;24.80;1.00;;;;;;5107824;28;20027;-66
2023/06/30 01:20:17;;;;;;;6.90;6.07;;;24.70;1.00;;;;;;5110585;28;20024;-66
2023/06/30 01:22:44;;;;;;;8.70;6.93;;;24.80;1.00;;;;;;5102322;28;20024;-67
2023/06/30 01:25:19;;;;;;;22.42;10.43;;;25.00;1.00;;;;;;5097596;28;20105;-66
2023/06/30 01:27:45;;;;;;;23.40;11.13;;;23.80;99.90;;;;;;5098612;28;20032;-66
2023/06/30 01:30:13;;;;;;;18.67;12.13;;;23.90;99.90;;;;;;5103879;28;20028;-68
2023/06/30 01:32:40;;;;;;;12.90;11.27;;;23.10;99.90;;;;;;5111684;28;20411;-68
2023/06/30 01:35:06;;;;;;;13.07;11.48;;;22.40;99.90;;;;;;5103623;28;20026;-69
2023/06/30 01:37:31;;;;;;;13.55;11.57;;;22.30;99.90;;;;;;5091723;28;20023;-69
2023/06/30 01:39:58;;;;;;;13.68;11.23;;;22.00;99.90;;;;;;5111780;28;20489;-69
2023/06/30 01:42:24;;;;;;;12.68;11.48;;;22.00;99.90;;;;;;5108782;28;20047;-69
2023/06/30 01:44:51;;;;;;;14.18;12.30;;;22.10;99.90;;;;;;5111857;28;20118;-69
2023/06/30 01:47:17;;;;;;;12.55;11.35;;;21.90;99.90;;;;;;5103094;28;20059;-68
2023/06/30 01:49:43;;;;;;;14.30;12.82;;;21.70;99.90;;;;;;5110825;28;20126;-68
2023/06/30 01:52:09;;;;;;;12.32;10.90;;;22.00;99.90;;;;;;5107634;28;20054;-68
2023/06/30 01:54:35;;;;;;;12.90;11.18;;;21.90;99.90;;;;;;5112562;28;20465;-68
2023/06/30 01:57:01;;;;;;;15.32;13.18;;;21.60;99.90;;;;;;5089714;28;20473;-68
2023/06/30 01:59:26;;;;;;;13.13;11.98;;;21.90;99.90;;;;;;5088941;28;20258;-68
2023/06/30 02:01:52;;;;;;;14.25;12.82;;;22.00;99.90;;;;;;5104701;28;20099;-69
2023/06/30 02:04:18;;;;;;;15.35;13.73;;;21.80;99.90;;;;;;5100102;28;20473;-69
2023/06/30 02:06:43;;;;;;;16.45;11.85;;;21.50;99.90;;;;;;5099799;28;20051;-69
2023/06/30 02:09:09;;;;;;;14.20;12.88;;;21.80;99.90;;;;;;5109676;28;20473;-69
2023/06/30 02:11:35;;;;;;;14.35;12.68;;;21.90;99.90;;;;;;5101012;28;20483;-69
2023/06/30 02:14:00;;;;;;;14.18;12.73;;;22.00;99.90;;;;;;5108027;28;20102;-69
2023/06/30 02:16:26;;;;;;;16.10;11.90;;;22.20;99.90;;;;;;5106532;28;20063;-69
2023/06/30 02:18:54;;;;;;;13.50;12.30;;;22.20;99.90;;;;;;5108095;28;20105;-70
2023/06/30 02:21:21;;;;;;;13.32;11.35;;;22.30;99.90;;;;;;5108800;28;20061;-70
2023/06/30 02:23:48;;;;;;;12.73;11.48;;;22.40;99.90;;;;;;5108214;28;20020;-70
2023/06/30 02:26:14;;;;;;;12.27;11.05;;;22.40;99.90;;;;;;5110514;28;20032;-70
2023/06/30 02:28:39;;;;;;;11.52;10.43;;;22.30;99.90;;;;;;5107204;28;20092;-71
2023/06/30 02:31:05;;;;;;;13.32;10.23;;;22.30;99.90;;;;;;5110047;28;20430;-70
2023/06/30 02:33:31;;;;;;;11.70;10.60;;;22.50;99.90;;;;;;5099855;28;20024;-70
2023/06/30 02:35:57;;;;;;;12.07;10.90;;;22.50;99.90;;;;;;5102963;28;20058;-70
2023/06/30 02:38:23;;;;;;;12.50;10.88;;;22.50;99.90;;;;;;5106625;28;20072;-70
2023/06/30 02:40:48;;;;;;;10.90;9.77;;;22.50;99.90;;;;;;5094758;28;20035;-70
2023/06/30 02:43:14;;;;;;;11.85;10.60;;;22.50;99.90;;;;;;5106995;28;20027;-70
2023/06/30 02:45:40;;;;;;;10.75;9.73;;;22.40;99.90;;;;;;5112779;28;20027;-70
2023/06/30 02:48:05;;;;;;;11.35;10.18;;;22.50;99.90;;;;;;5111289;28;20123;-71
2023/06/30 02:50:32;;;;;;;11.10;10.00;;;22.60;99.90;;;;;;5109789;28;20028;-70
2023/06/30 02:52:59;;;;;;;13.35;10.02;;;22.60;99.90;;;;;;5109123;28;20115;-71
2023/06/30 02:55:25;;;;;;;14.20;9.93;;;22.70;99.90;;;;;;5110694;28;20028;-70
2023/06/30 02:57:51;;;;;;;11.10;10.05;;;22.70;99.90;;;;;;5113345;28;20042;-71
2023/06/30 03:00:17;;;;;;;12.02;10.82;;;22.60;99.90;;;;;;5097462;28;20461;-71
2023/06/30 03:02:43;;;;;;;10.88;9.75;;;22.70;99.90;;;;;;5095974;28;20038;-71
2023/06/30 03:05:09;;;;;;;11.55;9.32;;;22.80;99.90;;;;;;5108679;28;20062;-71
2023/06/30 03:07:36;;;;;;;10.20;9.20;;;22.80;99.90;;;;;;5089546;28;20088;-70
2023/06/30 03:10:02;;;;;;;11.80;10.73;;;22.90;99.90;;;;;;5113517;28;20031;-70
2023/06/30 03:12:27;;;;;;;11.63;9.52;;;22.90;68.00;;;;;;5114738;28;20024;-71
2023/06/30 03:14:53;;;;;;;13.27;10.02;;;23.00;1.00;;;;;;5109207;28;20036;-70
2023/06/30 03:17:22;;;;;;;10.05;9.15;;;23.20;1.00;;;;;;5109536;28;20035;-70
2023/06/30 03:19:48;;;;;;;12.35;11.10;;;23.40;1.00;;;;;;5105719;28;20107;-70
2023/06/30 03:22:13;;;;;;;12.73;11.43;;;23.30;1.00;;;;;;5104286;28;20114;-71
2023/06/30 03:24:39;;;;;;;11.63;10.43;;;23.30;1.00;;;;;;5114970;28;20024;-70
2023/06/30 03:27:05;;;;;;;11.95;9.93;;;23.60;1.00;;;;;;5111460;28;20044;-70
2023/06/30 03:29:31;;;;;;;11.82;10.55;;;23.80;1.00;;;;;;5113611;28;20016;-71
2023/06/30 03:31:57;;;;;;;11.35;10.25;;;23.80;1.00;;;;;;5103053;28;20047;-71
2023/06/30 03:34:23;;;;;;;12.77;10.52;;;23.80;1.00;;;;;;5103594;28;20031;-71
2023/06/30 03:36:49;;;;;;;11.13;10.07;;;23.90;1.00;;;;;;5110153;28;20094;-71
2023/06/30 03:39:15;;;;;;;12.13;10.95;;;23.80;1.00;;;;;;5111869;28;20354;-71
2023/06/30 03:41:41;;;;;;;13.85;10.57;;;23.80;1.00;;;;;;5113438;28;20030;-71
2023/06/30 03:44:06;;;;;;;11.07;9.43;;;23.70;1.00;;;;;;5105411;28;20556;-71
2023/06/30 03:46:32;;;;;;;12.00;10.88;;;23.80;1.00;;;;;;5113161;28;20389;-71
2023/06/30 03:48:58;;;;;;;10.50;9.35;;;23.60;1.00;;;;;;5092364;28;20027;-71
2023/06/30 03:51:24;;;;;;;11.27;9.98;;;23.60;1.00;;;;;;5111114;28;20102;-71
2023/06/30 03:53:50;;;;;;;14.15;10.23;;;23.60;1.00;;;;;;5115489;28;20016;-71
2023/06/30 03:56:15;;;;;;;11.50;10.38;;;23.70;1.00;;;;;;5109196;28;20508;-70
2023/06/30 03:58:42;;;;;;;12.30;11.05;;;23.40;1.00;;;;;;5101465;28;20085;-71
2023/06/30 04:01:07;;;;;;;11.80;10.60;;;23.20;1.00;;;;;;5110983;28;20043;-71
2023/06/30 04:03:33;;;;;;;13.23;11.55;;;23.20;1.00;;;;;;5110311;28;20059;-71
2023/06/30 04:05:59;;;;;;;14.05;11.60;;;23.40;1.00;;;;;;5109031;28;20047;-71
2023/06/30 04:08:25;;;;;;;13.52;11.60;;;23.40;1.00;;;;;;5110804;28;20127;-71
2023/06/30 04:10:50;;;;;;;13.77;11.70;;;23.40;1.00;;;;;;5113021;28;20011;-71
2023/06/30 04:13:16;;;;;;;13.07;10.38;;;23.30;1.00;;;;;;5105896;28;20111;-71
2023/06/30 04:15:42;;;;;;;11.48;9.95;;;23.30;1.00;;;;;;5112423;28;20046;-71
2023/06/30 04:18:08;;;;;;;10.23;9.20;;;23.20;1.00;;;;;;5107824;28;20036;-71
2023/06/30 04:20:34;;;;;;;9.80;8.88;;;23.10;1.00;;;;;;5109570;28;20026;-71
2023/06/30 04:22:59;;;;;;;11.88;8.82;;;23.10;1.00;;;;;;5109638;28;20067;-71
2023/06/30 04:25:25;;;;;;;11.68;8.05;;;23.20;1.00;;;;;;5095396;28;20028;-71
2023/06/30 04:27:51;;;;;;;9.18;7.38;;;23.20;1.00;;;;;;5106148;28;20081;-71
2023/06/30 04:30:16;;;;;;;10.02;8.85;;;23.20;1.00;;;;;;5096622;28;20073;-71
2023/06/30 04:32:42;;;;;;;9.95;8.10;;;23.20;1.00;;;;;;5106229;28;20073;-71
2023/06/30 04:35:08;;;;;;;8.88;7.93;;;23.10;1.00;;;;;;5109164;28;20055;-71
2023/06/30 04:37:40;;;;;;;18.98;9.43;;;23.00;1.00;;;;;;5096871;28;20028;-71
2023/06/30 04:40:10;;;;;;;10.00;8.95;;;23.00;1.00;;;;;;5105194;28;20073;-71
2023/06/30 04:42:36;;;;;;;10.00;8.35;;;23.10;1.00;;;;;;5107577;28;20020;-71
2023/06/30 04:45:02;;;;;;;11.73;8.30;;;23.20;1.00;;;;;;5106684;28;20055;-71
2023/06/30 04:47:28;;;;;;;14.68;8.82;;;23.10;1.00;;;;;;5106460;28;20038;-71
2023/06/30 04:49:54;;;;;;;10.63;8.75;;;23.10;1.00;;;;;;5094687;28;20016;-71
2023/06/30 04:52:20;;;;;;;9.30;8.38;;;23.30;1.00;;;;;;5105876;28;20487;-71
2023/06/30 04:54:46;;;;;;;9.52;8.15;;;23.30;1.00;;;;;;5114309;28;20032;-71
2023/06/30 04:57:11;;;;;;;10.80;7.93;;;23.10;1.00;;;;;;5103319;28;20023;-71
2023/06/30 04:59:38;;;;;;;11.45;8.23;;;23.30;1.00;;;;;;5113971;28;20366;-71
2023/06/30 05:02:04;;;;;;;10.90;7.28;;;23.40;1.00;;;;;;5109051;28;20031;-71
2023/06/30 05:04:30;;;;;;;8.20;6.88;;;23.40;1.00;;;;;;5110543;28;20020;-71
2023/06/30 05:06:56;;;;;;;9.95;7.65;;;23.40;1.00;;;;;;5109514;28;20062;-71
2023/06/30 05:09:22;;;;;;;9.65;6.55;;;23.50;1.00;;;;;;5103124;28;20381;-71
2023/06/30 05:11:48;;;;;;;9.27;7.05;;;23.50;1.00;;;;;;5110655;28;20507;-71
2023/06/30 05:14:14;;;;;;;10.35;6.53;;;23.50;1.00;;;;;;5110343;28;20027;-71
2023/06/30 05:16:40;;;;;;;7.63;6.38;;;23.40;1.00;;;;;;5107564;28;20017;-71
2023/06/30 05:19:05;;;;;;;8.10;6.47;;;23.50;1.00;;;;;;5103638;28;20077;-71
2023/06/30 05:21:31;;;;;;;9.02;6.35;;;23.50;1.00;;;;;;5108549;28;20393;-71
2023/06/30 05:23:56;;;;;;;10.07;6.65;;;23.50;1.00;;;;;;5111564;28;20054;-71
2023/06/30 05:26:22;;;;;;;7.22;6.50;;;23.60;1.00;;;;;;5107810;28;20370;-71
2023/06/30 05:28:48;;;;;;;8.63;6.70;;;23.60;1.00;;;;;;5113786;28;20076;-71
2023/06/30 05:31:13;;;;;;;12.10;6.97;;;23.70;1.00;;;;;;5106272;28;20103;-71
2023/06/30 05:33:39;;;;;;;12.38;7.70;;;23.60;1.00;;;;;;5103889;28;20023;-71
2023/06/30 05:36:05;;;;;;;11.63;7.95;;;23.60;1.00;;;;;;5106331;28;20476;-76
2023/06/30 05:38:31;;;;;;;11.55;7.93;;;23.60;1.00;;;;;;5104721;28;20032;-73
2023/06/30 05:40:56;;;;;;;8.15;7.35;;;23.50;1.00;;;;;;5104280;28;20110;-74
2023/06/30 05:43:22;;;;;;;10.48;8.30;;;23.60;1.00;;;;;;5107006;28;20017;-76
2023/06/30 05:45:49;;;;;;;11.45;8.02;;;23.60;1.00;;;;;;5104135;28;20030;-74
2023/06/30 05:48:15;;;;;;;9.65;8.60;;;23.60;1.00;;;;;;5112883;28;20058;-73
2023/06/30 05:50:41;;;;;;;10.20;8.43;;;23.80;1.00;;;;;;5101810;28;20369;-70
2023/06/30 05:53:07;;;;;;;10.27;8.05;;;23.80;1.00;;;;;;5108122;28;20027;-73
2023/06/30 05:55:32;;;;;;;9.68;8.23;;;23.70;1.00;;;;;;5100786;28;21520;-70
2023/06/30 05:57:58;;;;;;;11.55;9.30;;;23.70;1.00;;;;;;5108986;28;20031;-70
2023/06/30 06:00:25;;;;;;;10.50;8.00;;;23.70;1.00;;;;;;5085803;28;20437;-71
2023/06/30 06:02:50;;;;;;;9.70;8.70;;;23.70;1.00;;;;;;5107389;28;20481;-64
2023/06/30 06:05:16;;;;;;;11.82;9.18;;;23.80;1.00;;;;;;5106531;28;20548;-73
2023/06/30 06:07:42;;;;;;;9.05;8.25;;;23.80;1.00;;;;;;5105606;28;20047;-71
2023/06/30 06:10:08;;;;;;;9.70;8.70;;;23.80;1.00;;;;;;5090076;28;20081;-70
2023/06/30 06:12:34;;;;;;;11.65;9.77;;;23.90;1.00;;;;;;5094488;28;20042;-68
2023/06/30 06:15:00;;;;;;;11.77;9.65;;;24.00;1.00;;;;;;5103718;28;20465;-67
2023/06/30 06:17:25;;;;;;;11.27;9.20;;;23.90;1.00;;;;;;5105716;28;20385;-66
2023/06/30 06:19:52;;;;;;;11.27;9.63;;;23.90;1.00;;;;;;5110811;28;20401;-70
2023/06/30 06:22:18;;;;;;;13.45;9.25;;;24.00;1.00;;;;;;5102987;28;20039;-72
2023/06/30 06:24:43;;;;;;;10.40;9.30;;;24.00;1.00;;;;;;5106006;28;20019;-70
2023/06/30 06:27:09;;;;;;;10.25;8.88;;;23.90;1.00;;;;;;5098862;28;20070;-76
2023/06/30 06:29:35;;;;;;;14.45;8.98;;;24.00;1.00;;;;;;5102480;28;20024;-73
2023/06/30 06:32:00;;;;;;;9.27;8.38;;;24.10;1.00;;;;;;5107735;28;20054;-69
2023/06/30 06:34:26;;;;;;;11.13;7.78;;;24.20;1.00;;;;;;5109648;28;20028;-73
2023/06/30 06:36:52;;;;;;;11.23;8.68;;;24.20;1.00;;;;;;5108845;28;20557;-63
2023/06/30 06:39:18;;;;;;;10.25;8.60;;;24.40;1.00;;;;;;5108796;28;20031;-75
2023/06/30 06:41:44;;;;;;;10.00;9.07;;;24.50;1.00;;;;;;5094708;28;20026;-68
2023/06/30 06:44:10;;;;;;;11.23;8.50;;;24.50;1.00;;;;;;5108933;28;20449;-58
2023/06/30 06:46:36;;;;;;;9.10;8.20;;;24.80;1.00;;;;;;5107167;28;20031;-68
2023/06/30 06:49:02;;;;;;;11.95;9.40;;;24.90;1.00;;;;;;5107538;28;20023;-64
2023/06/30 06:51:28;;;;;;;9.68;7.75;;;24.80;1.00;;;;;;5106929;28;20023;-63
2023/06/30 06:53:53;;;;;;;9.07;7.88;;;24.90;1.00;;;;;;5109410;28;20036;-67
2023/06/30 06:56:19;;;;;;;8.63;7.72;;;25.00;1.00;;;;;;5112271;28;20076;-67
2023/06/30 06:58:45;;;;;;;10.23;8.57;;;25.00;1.00;;;;;;5106102;28;20421;-66
2023/06/30 07:01:11;;;;;;;9.55;8.18;;;25.10;1.00;;;;;;5098844;28;20546;-69
2023/06/30 07:03:38;;;;;;;9.32;8.27;;;25.10;1.00;;;;;;5115275;28;20062;-69
2023/06/30 07:06:06;;;;;;;10.32;8.23;;;25.20;1.00;;;;;;5106808;28;20141;-78
2023/06/30 07:08:35;;;;;;;10.00;8.07;;;25.00;1.00;;;;;;5102129;28;20047;-72
2023/06/30 07:11:04;;;;;;;10.70;9.65;;;25.20;1.00;;;;;;5108273;28;20600;-67
2023/06/30 07:13:30;;;;;;;10.02;8.45;;;25.00;1.00;;;;;;5108208;28;20127;-67
2023/06/30 07:15:56;;;;;;;9.02;8.07;;;24.90;1.00;;;;;;5110488;28;20055;-66
2023/06/30 07:18:22;;;;;;;11.00;8.80;;;24.80;1.00;;;;;;5107070;28;20358;-65
2023/06/30 07:20:48;;;;;;;10.40;9.30;;;24.90;1.00;;;;;;5105403;28;20019;-66
2023/06/30 07:23:14;;;;;;;10.70;8.70;;;24.90;1.00;;;;;;5107643;28;20060;-60
2023/06/30 07:25:40;;;;;;;9.68;8.13;;;24.90;1.00;;;;;;5105788;28;20031;-59
2023/06/30 07:28:06;;;;;;;9.63;8.35;;;25.00;1.00;;;;;;5109082;28;20047;-65
2023/06/30 07:30:32;;;;;;;8.80;7.97;;;25.20;1.00;;;;;;5110350;28;20031;-59
2023/06/30 07:32:57;;;;;;;10.90;9.48;;;25.20;1.00;;;;;;5109045;28;20027;-64
2023/06/30 07:35:23;;;;;;;10.02;8.98;;;25.20;1.00;;;;;;5111136;28;20536;-63
2023/06/30 07:37:50;;;;;;;8.40;7.57;;;25.30;1.00;;;;;;5105144;28;20523;-62
2023/06/30 07:40:17;;;;;;;10.65;8.57;;;25.50;1.00;;;;;;5102835;28;20023;-63
2023/06/30 07:42:43;;;;;;;10.82;9.63;;;25.60;1.00;;;;;;5107840;28;20024;-69
2023/06/30 07:45:13;;;;;;;8.80;7.90;;;25.60;1.00;;;;;;5105635;28;20789;-66
2023/06/30 07:47:40;;;;;;;9.88;7.50;;;25.70;1.00;;;;;;5107412;28;20031;-71
2023/06/30 07:50:12;;;;;;;9.90;8.25;;;25.80;1.00;;;;;;5103393;28;20065;-64
2023/06/30 07:52:40;;;;;;;10.02;8.35;;;25.80;1.00;;;;;;5103739;28;20027;-69
2023/06/30 07:55:07;;;;;;;10.75;8.70;;;25.80;1.00;;;;;;5109098;28;20030;-68
2023/06/30 07:57:33;;;;;;;11.93;8.13;;;25.90;1.00;;;;;;5107235;28;20039;-65
2023/06/30 07:59:58;;;;;;;9.65;7.55;;;25.90;1.00;;;;;;5111301;28;20028;-65
2023/06/30 08:02:24;;;;;;;9.73;8.80;;;25.70;1.00;;;;;;5090817;28;20034;-68
2023/06/30 08:04:50;;;;;;;12.82;8.25;;;25.70;1.00;;;;;;5106634;28;20055;-66
2023/06/30 08:07:16;;;;;;;9.77;8.38;;;25.70;1.00;;;;;;5093947;28;20073;-65
2023/06/30 08:09:42;;;;;;;8.07;7.28;;;25.70;1.00;;;;;;5107324;28;20021;-69
2023/06/30 08:12:08;;;;;;;10.27;8.45;;;25.80;1.00;;;;;;5107058;28;20092;-70
2023/06/30 08:14:35;;;;;;;9.80;8.90;;;25.70;1.00;;;;;;5105850;28;20020;-72
2023/06/30 08:17:02;;;;;;;8.85;7.88;;;25.60;1.00;;;;;;5112037;28;20023;-76
2023/06/30 08:19:27;;;;;;;9.88;8.98;;;25.60;1.00;;;;;;5106896;28;20035;-69
2023/06/30 08:21:53;;;;;;;9.10;8.15;;;25.60;1.00;;;;;;5107731;28;20077;-71
2023/06/30 08:24:19;;;;;;;11.25;9.40;;;25.70;1.00;;;;;;5084452;28;20499;-70
2023/06/30 08:26:44;;;;;;;11.90;9.40;;;25.70;1.00;;;;;;5104057;28;20031;-71
2023/06/30 08:29:10;;;;;;;11.05;9.57;;;25.70;1.00;;;;;;5110090;28;20382;-75
2023/06/30 08:31:36;;;;;;;11.38;9.02;;;25.80;1.00;;;;;;5103980;28;20027;-71
2023/06/30 08:34:02;;;;;;;9.68;8.75;;;25.80;1.00;;;;;;5110556;28;20469;-79
2023/06/30 08:36:28;;;;;;;9.85;8.88;;;25.90;1.00;;;;;;5084810;28;20031;-68
2023/06/30 08:38:53;;;;;;;10.75;9.23;;;25.90;1.00;;;;;;5106604;28;20027;-70
2023/06/30 08:41:19;;;;;;;10.13;9.13;;;25.90;1.00;;;;;;5102880;28;20389;-73
2023/06/30 08:43:46;;;;;;;11.18;10.00;;;25.80;1.00;;;;;;5091466;28;20045;-71
2023/06/30 08:46:13;;;;;;;11.32;9.05;;;25.80;1.00;;;;;;5092306;28;20034;-70
2023/06/30 08:48:40;;;;;;;10.15;9.27;;;25.80;1.00;;;;;;5107388;28;20399;-70
2023/06/30 08:51:06;;;;;;;12.18;11.00;;;25.90;1.00;;;;;;5105150;28;20102;-67
2023/06/30 08:53:33;;;;;;;8.95;8.05;;;25.80;1.00;;;;;;5106629;28;20106;-70
2023/06/30 08:55:59;;;;;;;11.07;9.27;;;26.00;1.00;;;;;;5106247;28;20177;-69
2023/06/30 08:58:28;;;;;;;13.70;10.60;;;26.20;1.00;;;;;;5102245;28;20022;-68
2023/06/30 09:00:58;;;;;;;10.48;9.38;;;26.00;1.00;;;;;;5110907;28;20035;-70
2023/06/30 09:03:24;;;;;;;11.57;9.43;;;25.90;1.00;;;;;;5104971;28;20773;-69
2023/06/30 09:05:58;;;;;;;11.38;10.20;;;26.00;1.00;;;;;;5107727;28;20054;-64
2023/06/30 09:08:31;;;;;;;11.15;9.98;;;26.00;1.00;;;;;;5107242;28;20493;-74
2023/06/30 09:10:58;;;;;;;15.85;10.65;;;25.90;1.00;;;;;;5108246;28;20051;-68
2023/06/30 09:13:25;;;;;;;13.20;11.48;;;25.90;1.00;;;;;;5106564;28;20561;-70
2023/06/30 09:15:55;;;;;;;11.32;9.98;;;25.90;1.00;;;;;;5107920;28;20392;-66
2023/06/30 09:18:21;;;;;;;15.07;11.10;;;25.90;1.00;;;;;;5106027;28;20031;-69
2023/06/30 09:20:47;;;;;;;15.82;14.18;;;25.60;1.00;;;;;;5084888;28;20477;-72
2023/06/30 09:23:14;;;;;;;17.63;14.82;;;25.20;1.00;;;;;;5105022;28;20038;-72
2023/06/30 09:25:40;;;;;;;41.25;22.42;;;24.80;1.00;;;;;;5106121;28;20078;-65
2023/06/30 09:28:10;;;;;;;41.05;28.40;;;23.50;99.90;;;;;;5103298;28;20110;-63
2023/06/30 09:30:37;;;;;;;39.58;30.38;;;23.00;99.90;;;;;;5088239;28;20028;-65
2023/06/30 09:33:04;;;;;;;31.13;27.85;;;23.00;99.90;;;;;;5104411;28;20059;-62
2023/06/30 09:35:37;;;;;;;33.65;30.20;;;23.00;99.90;;;;;;5108055;28;20030;-61
2023/06/30 09:38:07;;;;;;;35.95;32.35;;;22.90;99.90;;;;;;5102176;28;20510;-61
2023/06/30 09:40:33;;;;;;;30.35;27.38;;;22.70;99.90;;;;;;5104088;28;20462;-61
2023/06/30 09:42:58;;;;;;;31.92;28.67;;;22.60;99.90;;;;;;5101246;28;20111;-61
2023/06/30 09:45:24;;;;;;;36.63;31.40;;;22.40;99.90;;;;;;5104993;28;20454;-61
2023/06/30 09:47:53;;;;;;;36.28;32.33;;;22.30;99.90;;;;;;5103632;28;20438;-61
2023/06/30 09:50:27;;;;;;;36.15;32.38;;;22.40;99.90;;;;;;5102123;28;20024;-58
2023/06/30 09:52:53;;;;;;;32.95;29.13;;;22.30;99.90;;;;;;5109760;28;20027;-67
2023/06/30 09:55:19;;;;;;;32.22;28.38;;;22.00;99.90;;;;;;5104166;28;20039;-69
2023/06/30 09:57:46;;;;;;;29.85;26.83;;;21.60;99.90;;;;;;5103617;28;20119;-69
2023/06/30 10:00:13;;;;;;;33.58;29.75;;;21.50;99.90;;;;;;5107379;28;20039;-69
2023/06/30 10:02:40;;;;;;;31.90;28.58;;;21.70;99.90;;;;;;5100749;28;20106;-69
2023/06/30 10:05:06;;;;;;;36.65;27.75;;;21.50;99.90;;;;;;5108947;28;20481;-69
2023/06/30 10:07:32;;;;;;;33.13;29.73;;;21.50;99.90;;;;;;5108112;28;20048;-68
2023/06/30 10:10:00;;;;;;;24.20;21.60;;;21.80;99.90;;;;;;5108216;28;20065;-67
2023/06/30 10:12:27;;;;;;;25.65;21.90;;;21.20;99.90;;;;;;5106693;28;20059;-67
2023/06/30 10:14:54;;;;;;;24.27;20.90;;;21.10;99.90;;;;;;5090383;28;20038;-67
2023/06/30 10:17:20;;;;;;;24.33;21.73;;;20.90;99.90;;;;;;5103208;28;20530;-67
2023/06/30 10:19:46;;;;;;;22.92;20.55;;;20.90;99.90;;;;;;5100357;28;20024;-67
2023/06/30 10:22:12;;;;;;;42.30;35.58;;;20.90;99.90;;;;;;5102966;28;20084;-68
2023/06/30 10:24:43;;;;;;;25.58;23.00;;;20.90;99.90;;;;;;5101441;28;20023;-67
2023/06/30 10:27:12;;;;;;;25.38;22.60;;;20.80;99.90;;;;;;5083869;28;20043;-67
2023/06/30 10:29:38;;;;;;;27.13;22.33;;;20.80;99.90;;;;;;5109408;28;20020;-68
2023/06/30 10:32:04;;;;;;;26.80;23.17;;;20.80;99.90;;;;;;5102165;28;20932;-67
2023/06/30 10:34:30;;;;;;;24.92;22.33;;;20.90;99.90;;;;;;5080043;28;20157;-67
2023/06/30 10:36:58;;;;;;;25.38;22.83;;;21.00;99.90;;;;;;5088263;28;20051;-67
2023/06/30 10:39:24;;;;;;;24.83;22.17;;;20.90;99.90;;;;;;5089852;28;20076;-67
2023/06/30 10:41:51;;;;;;;26.63;22.27;;;20.70;99.90;;;;;;5107164;28;20023;-67
2023/06/30 10:44:20;;;;;;;24.35;21.90;;;20.40;99.90;;;;;;5090395;28;20017;-67
2023/06/30 10:46:52;;;;;;;29.63;24.65;;;20.40;99.90;;;;;;5106849;28;22130;-67
2023/06/30 10:49:29;;;;;;;23.70;21.13;;;20.70;99.90;;;;;;5105752;28;20495;-68
2023/06/30 10:51:56;;;;;;;21.05;18.85;;;20.50;99.90;;;;;;5102366;28;20109;-67
2023/06/30 10:54:27;;;;;;;21.20;18.70;;;20.30;99.90;;;;;;5101618;28;20058;-65
2023/06/30 10:57:08;;;;;;;24.25;17.77;;;20.00;99.90;;;;;;5108546;28;20040;-65
2023/06/30 10:59:44;;;;;;;25.45;20.73;;;20.00;99.90;;;;;;5105167;28;20039;-65
2023/06/30 11:02:18;;;;;;;26.08;23.42;;;20.40;99.90;;;;;;5101324;28;20094;-64
2023/06/30 11:04:45;;;;;;;24.73;21.80;;;20.60;99.90;;;;;;5103568;28;20492;-65
2023/06/30 11:07:27;;;;;;;24.45;21.85;;;20.70;99.90;;;;;;5101938;28;20062;-64
2023/06/30 11:09:53;;;;;;;28.38;24.27;;;20.80;99.90;;;;;;5107747;28;20068;-64
2023/06/30 11:12:25;;;;;;;25.08;22.45;;;20.90;99.90;;;;;;5102263;28;20028;-64
2023/06/30 11:15:01;;;;;;;29.17;23.95;;;20.90;99.90;;;;;;5098448;28;20020;-64
2023/06/30 11:17:47;;;;;;;27.20;24.30;;;21.00;99.90;;;;;;5107305;28;20027;-63
2023/06/30 11:20:14;;;;;;;28.05;24.65;;;21.20;99.90;;;;;;5104407;28;20078;-64
2023/06/30 11:22:40;;;;;;;32.28;24.85;;;21.00;99.90;;;;;;5105607;28;20059;-64
2023/06/30 11:25:10;;;;;;;29.25;24.52;;;21.10;99.90;;;;;;5107908;28;20060;-64
2023/06/30 11:27:40;;;;;;;29.33;26.08;;;21.00;99.90;;;;;;5106750;28;20032;-64
2023/06/30 11:30:07;;;;;;;31.65;26.90;;;21.00;99.90;;;;;;5111345;28;20495;-64
2023/06/30 11:32:38;;;;;;;30.20;24.73;;;21.00;99.90;;;;;;5102028;28;20165;-64
2023/06/30 11:35:09;;;;;;;32.35;26.40;;;21.00;99.90;;;;;;5103703;28;20500;-64
2023/06/30 11:37:36;;;;;;;32.92;26.42;;;20.90;99.90;;;;;;5106023;28;20031;-65
2023/06/30 11:40:05;;;;;;;30.65;24.88;;;20.90;99.90;;;;;;5110958;28;20024;-64
2023/06/30 11:42:32;;;;;;;29.15;24.88;;;20.80;99.90;;;;;;5089605;28;20042;-64
2023/06/30 11:44:57;;;;;;;33.67;27.52;;;20.80;99.90;;;;;;5111620;28;20019;-65
2023/06/30 11:47:23;;;;;;;33.72;25.52;;;21.00;99.90;;;;;;5105313;28;20043;-65
2023/06/30 11:49:50;;;;;;;34.50;28.75;;;21.00;99.90;;;;;;5104488;28;20016;-64
2023/06/30 11:52:17;;;;;;;27.10;24.15;;;21.00;99.90;;;;;;5109908;28;20033;-64
2023/06/30 11:54:43;;;;;;;30.60;27.20;;;20.90;99.90;;;;;;5090613;28;20492;-64
2023/06/30 11:57:09;;;;;;;29.35;26.42;;;21.10;99.90;;;;;;5109946;28;20020;-64
2023/06/30 11:59:34;;;;;;;29.92;26.77;;;21.00;99.90;;;;;;5080713;28;20057;-64
2023/06/30 12:02:02;;;;;;;28.98;25.65;;;21.00;99.90;;;;;;5067280;28;20036;-65
2023/06/30 12:04:34;;;;;;;27.83;24.85;;;20.80;99.90;;;;;;5104990;28;20420;-64
2023/06/30 12:07:03;;;;;;;31.02;26.63;;;20.60;98.50;;;;;;5110221;28;20036;-64
2023/06/30 12:09:29;;;;;;;32.05;25.88;;;20.60;99.90;;;;;;5106035;28;20024;-64
2023/06/30 12:11:56;;;;;;;31.83;26.38;;;20.60;35.60;;;;;;5109778;28;20374;-64
2023/06/30 12:14:25;;;;;;;27.27;24.35;;;20.70;52.20;;;;;;5111539;28;20028;-64
2023/06/30 12:16:53;;;;;;;31.38;26.30;;;20.90;37.80;;;;;;5111642;28;20066;-64
2023/06/30 12:19:26;;;;;;;26.98;23.08;;;21.10;23.70;;;;;;5111463;28;20362;-71
2023/06/30 12:22:03;;;;;;;28.75;24.38;;;21.20;16.00;;;;;;5110644;28;20031;-69
2023/06/30 12:24:33;;;;;;;25.98;23.27;;;21.20;20.90;;;;;;5095605;28;20081;-70
2023/06/30 12:27:03;;;;;;;27.52;24.58;;;21.10;17.60;;;;;;5104836;28;20555;-66
2023/06/30 12:29:30;;;;;;;25.10;22.55;;;21.10;1.20;;;;;;5113905;28;20105;-62
2023/06/30 12:31:56;;;;;;;26.75;22.98;;;21.10;12.00;;;;;;5104845;28;20069;-63
2023/06/30 12:34:32;;;;;;;23.38;20.85;;;21.10;13.60;;;;;;5112118;28;20560;-64
2023/06/30 12:36:58;;;;;;;23.30;20.70;;;21.00;1.00;;;;;;5104899;28;20107;-71
2023/06/30 12:39:23;;;;;;;20.75;18.30;;;21.10;9.00;;;;;;5107608;28;20055;-67